sensor_id;sensor_type;location;lat;lon;timestamp;pressure;altitude;pressure_sealevel;temperature;humidity
49945;BME280;35838;49.134;9.212;2024-01-16T00:00:27;99356.75;;;-0.99;100.00
49945;BME280;35838;49.134;9.212;2024-01-16T00:01:58;99362.28;;;-1.11;100.00
49945;BME280;35838;49.134;9.212;2024-01-16T00:03:32;99365.50;;;-1.17;100.00
49945;BME280;35838;49.134;9.212;2024-01-16T00:05:03;99364.88;;;-1.09;100.00
49945;BME280;35838;49.134;9.212;2024-01-16T00:06:38;99361.22;;;-1.18;100.00
49945;BME280;35838;49.134;9.212;2024-01-16T00:08:12;99358.66;;;-1.18;100.00
49945;BME280;35838;49.134;9.212;2024-01-16T00:09:43;99358.09;;;-1.09;100.00
49945;BME280;35838;49.134;9.212;2024-01-16T00:11:20;99365.25;;;-1.23;100.00
49945;BME280;35838;49.134;9.212;2024-01-16T00:12:51;99361.84;;;-1.23;100.00
49945;BME280;35838;49.134;9.212;2024-01-16T00:14:24;99354.19;;;-1.25;100.00
49945;BME280;35838;49.134;9.212;2024-01-16T00:15:55;99351.06;;;-1.16;100.00
49945;BME280;35838;49.134;9.212;2024-01-16T00:17:30;99358.38;;;-1.26;100.00
49945;BME280;35838;49.134;9.212;2024-01-16T00:19:01;99355.91;;;-1.24;100.00
49945;BME280;35838;49.134;9.212;2024-01-16T00:20:34;99357.84;;;-1.17;100.00
49945;BME280;35838;49.134;9.212;2024-01-16T00:22:06;99368.03;;;-1.17;100.00
49945;BME280;35838;49.134;9.212;2024-01-16T00:23:39;99359.63;;;-1.14;100.00
49945;BME280;35838;49.134;9.212;2024-01-16T00:25:10;99367.28;;;-1.14;100.00
49945;BME280;35838;49.134;9.212;2024-01-16T00:26:47;99361.56;;;-1.07;100.00
49945;BME280;35838;49.134;9.212;2024-01-16T00:28:18;99358.81;;;-1.13;100.00
49945;BME280;35838;49.134;9.212;2024-01-16T00:29:52;99362.34;;;-1.09;100.00
49945;BME280;35838;49.134;9.212;2024-01-16T00:31:23;99358.97;;;-1.08;100.00
49945;BME280;35838;49.134;9.212;2024-01-16T00:32:57;99364.72;;;-1.14;100.00
49945;BME280;35838;49.134;9.212;2024-01-16T00:34:28;99356.66;;;-1.27;100.00
49945;BME280;35838;49.134;9.212;2024-01-16T00:36:02;99359.91;;;-1.31;100.00
49945;BME280;35838;49.134;9.212;2024-01-16T00:37:33;99364.69;;;-1.40;100.00
49945;BME280;35838;49.134;9.212;2024-01-16T00:39:07;99363.88;;;-1.39;100.00
49945;BME280;35838;49.134;9.212;2024-01-16T00:40:40;99361.97;;;-1.45;100.00
49945;BME280;35838;49.134;9.212;2024-01-16T00:42:14;99363.88;;;-1.39;100.00
49945;BME280;35838;49.134;9.212;2024-01-16T00:43:48;99355.78;;;-1.51;100.00
49945;BME280;35838;49.134;9.212;2024-01-16T00:45:19;99367.19;;;-1.42;100.00
49945;BME280;35838;49.134;9.212;2024-01-16T00:46:52;99360.72;;;-1.32;100.00
49945;BME280;35838;49.134;9.212;2024-01-16T00:48:23;99356.28;;;-1.37;100.00
49945;BME280;35838;49.134;9.212;2024-01-16T00:49:58;99360.13;;;-1.24;100.00
49945;BME280;35838;49.134;9.212;2024-01-16T00:51:32;99350.88;;;-1.22;100.00
49945;BME280;35838;49.134;9.212;2024-01-16T00:53:03;99350.69;;;-1.27;100.00
49945;BME280;35838;49.134;9.212;2024-01-16T00:54:37;99354.72;;;-1.34;100.00
49945;BME280;35838;49.134;9.212;2024-01-16T00:56:12;99354.25;;;-1.22;100.00
49945;BME280;35838;49.134;9.212;2024-01-16T00:57:46;99347.53;;;-1.20;100.00
49945;BME280;35838;49.134;9.212;2024-01-16T00:59:19;99353.81;;;-1.10;100.00
49945;BME280;35838;49.134;9.212;2024-01-16T01:00:50;99352.09;;;-1.11;100.00
49945;BME280;35838;49.134;9.212;2024-01-16T01:02:24;99352.16;;;-1.09;100.00
49945;BME280;35838;49.134;9.212;2024-01-16T01:03:55;99348.72;;;-1.10;100.00
49945;BME280;35838;49.134;9.212;2024-01-16T01:05:29;99350.59;;;-1.04;100.00
49945;BME280;35838;49.134;9.212;2024-01-16T01:07:00;99347.97;;;-1.07;100.00
49945;BME280;35838;49.134;9.212;2024-01-16T01:08:33;99354.69;;;-1.09;100.00
49945;BME280;35838;49.134;9.212;2024-01-16T01:10:05;99358.91;;;-1.10;100.00
49945;BME280;35838;49.134;9.212;2024-01-16T01:11:38;99359.03;;;-1.07;100.00
49945;BME280;35838;49.134;9.212;2024-01-16T01:13:12;99366.63;;;-1.08;100.00
49945;BME280;35838;49.134;9.212;2024-01-16T01:14:46;99366.50;;;-1.12;100.00
49945;BME280;35838;49.134;9.212;2024-01-16T01:16:17;99367.44;;;-1.09;100.00
49945;BME280;35838;49.134;9.212;2024-01-16T01:17:50;99370.81;;;-1.09;100.00
49945;BME280;35838;49.134;9.212;2024-01-16T01:19:21;99370.75;;;-1.12;100.00
49945;BME280;35838;49.134;9.212;2024-01-16T01:20:55;99372.25;;;-1.17;100.00
49945;BME280;35838;49.134;9.212;2024-01-16T01:22:26;99374.00;;;-1.16;100.00
49945;BME280;35838;49.134;9.212;2024-01-16T01:24:00;99371.44;;;-1.16;100.00
49945;BME280;35838;49.134;9.212;2024-01-16T01:25:31;99381.69;;;-1.15;100.00
49945;BME280;35838;49.134;9.212;2024-01-16T01:27:04;99382.66;;;-1.11;100.00
49945;BME280;35838;49.134;9.212;2024-01-16T01:28:41;99385.94;;;-1.14;100.00
49945;BME280;35838;49.134;9.212;2024-01-16T01:30:12;99380.22;;;-1.08;100.00
49945;BME280;35838;49.134;9.212;2024-01-16T01:31:46;99387.00;;;-1.08;100.00
49945;BME280;35838;49.134;9.212;2024-01-16T01:33:18;99389.59;;;-1.07;100.00
49945;BME280;35838;49.134;9.212;2024-01-16T01:34:51;99391.28;;;-1.07;100.00
49945;BME280;35838;49.134;9.212;2024-01-16T01:36:22;99392.91;;;-1.09;100.00
49945;BME280;35838;49.134;9.212;2024-01-16T01:37:56;99394.63;;;-1.08;100.00
49945;BME280;35838;49.134;9.212;2024-01-16T01:39:27;99399.81;;;-1.05;100.00
49945;BME280;35838;49.134;9.212;2024-01-16T01:41:01;99401.50;;;-1.06;100.00
49945;BME280;35838;49.134;9.212;2024-01-16T01:42:32;99405.00;;;-1.04;100.00
49945;BME280;35838;49.134;9.212;2024-01-16T01:44:08;99405.03;;;-1.02;100.00
49945;BME280;35838;49.134;9.212;2024-01-16T01:45:47;99401.50;;;-1.06;100.00
49945;BME280;35838;49.134;9.212;2024-01-16T01:47:24;99407.53;;;-1.04;100.00
49945;BME280;35838;49.134;9.212;2024-01-16T01:48:57;99408.47;;;-1.02;100.00
49945;BME280;35838;49.134;9.212;2024-01-16T01:50:29;99413.63;;;-0.99;100.00
49945;BME280;35838;49.134;9.212;2024-01-16T01:52:02;99406.06;;;-0.97;100.00
49945;BME280;35838;49.134;9.212;2024-01-16T01:53:38;99413.84;;;-0.92;100.00
49945;BME280;35838;49.134;9.212;2024-01-16T01:55:10;99413.84;;;-0.92;100.00
49945;BME280;35838;49.134;9.212;2024-01-16T01:56:44;99417.13;;;-0.97;100.00
49945;BME280;35838;49.134;9.212;2024-01-16T01:58:16;99420.69;;;-0.91;100.00
49945;BME280;35838;49.134;9.212;2024-01-16T01:59:52;99415.81;;;-0.85;100.00
49945;BME280;35838;49.134;9.212;2024-01-16T02:01:24;99420.91;;;-0.85;100.00
49945;BME280;35838;49.134;9.212;2024-01-16T02:02:59;99415.03;;;-0.83;100.00
49945;BME280;35838;49.134;9.212;2024-01-16T02:04:32;99419.25;;;-0.83;100.00
49945;BME280;35838;49.134;9.212;2024-01-16T02:06:05;99418.38;;;-0.85;100.00
49945;BME280;35838;49.134;9.212;2024-01-16T02:07:38;99417.78;;;-0.76;100.00
49945;BME280;35838;49.134;9.212;2024-01-16T02:09:10;99418.94;;;-0.92;100.00
49945;BME280;35838;49.134;9.212;2024-01-16T02:10:43;99415.59;;;-0.91;100.00
49945;BME280;35838;49.134;9.212;2024-01-16T02:12:16;99415.50;;;-0.95;100.00
49945;BME280;35838;49.134;9.212;2024-01-16T02:13:50;99417.44;;;-0.87;100.00
49945;BME280;35838;49.134;9.212;2024-01-16T02:15:23;99410.69;;;-1.11;100.00
49945;BME280;35838;49.134;9.212;2024-01-16T02:16:57;99413.00;;;-1.17;100.00
49945;BME280;35838;49.134;9.212;2024-01-16T02:18:28;99419.03;;;-1.15;100.00
49945;BME280;35838;49.134;9.212;2024-01-16T02:20:02;99419.66;;;-0.97;100.00
49945;BME280;35838;49.134;9.212;2024-01-16T02:21:36;99422.97;;;-0.99;100.00
49945;BME280;35838;49.134;9.212;2024-01-16T02:23:10;99419.63;;;-0.98;100.00
49945;BME280;35838;49.134;9.212;2024-01-16T02:24:44;99419.38;;;-1.04;100.00
49945;BME280;35838;49.134;9.212;2024-01-16T02:26:18;99417.22;;;-0.93;100.00
49945;BME280;35838;49.134;9.212;2024-01-16T02:27:49;99415.38;;;-0.98;100.00
49945;BME280;35838;49.134;9.212;2024-01-16T02:29:23;99416.59;;;-1.12;100.00
49945;BME280;35838;49.134;9.212;2024-01-16T02:30:54;99415.94;;;-1.06;100.00
49945;BME280;35838;49.134;9.212;2024-01-16T02:32:27;99422.03;;;-1.26;100.00
49945;BME280;35838;49.134;9.212;2024-01-16T02:33:58;99414.38;;;-1.03;100.00
49945;BME280;35838;49.134;9.212;2024-01-16T02:35:32;99413.44;;;-1.05;100.00
49945;BME280;35838;49.134;9.212;2024-01-16T02:37:04;99416.69;;;-1.09;100.00
49945;BME280;35838;49.134;9.212;2024-01-16T02:38:38;99415.38;;;-0.98;100.00
49945;BME280;35838;49.134;9.212;2024-01-16T02:40:13;99413.75;;;-0.96;100.00
49945;BME280;35838;49.134;9.212;2024-01-16T02:41:46;99413.22;;;-1.11;100.00
49945;BME280;35838;49.134;9.212;2024-01-16T02:43:20;99409.19;;;-1.04;100.00
49945;BME280;35838;49.134;9.212;2024-01-16T02:44:51;99408.66;;;-0.96;100.00
49945;BME280;35838;49.134;9.212;2024-01-16T02:46:25;99408.16;;;-0.85;100.00
49945;BME280;35838;49.134;9.212;2024-01-16T02:47:56;99412.66;;;-0.78;100.00
49945;BME280;35838;49.134;9.212;2024-01-16T02:49:30;99414.47;;;-0.74;100.00
49945;BME280;35838;49.134;9.212;2024-01-16T02:51:03;99414.59;;;-0.71;100.00
49945;BME280;35838;49.134;9.212;2024-01-16T02:52:37;99411.22;;;-0.70;100.00
49945;BME280;35838;49.134;9.212;2024-01-16T02:54:08;99421.31;;;-0.73;100.00
49945;BME280;35838;49.134;9.212;2024-01-16T02:55:45;99423.31;;;-0.90;100.00
49945;BME280;35838;49.134;9.212;2024-01-16T02:57:18;99429.38;;;-0.86;100.00
49945;BME280;35838;49.134;9.212;2024-01-16T02:58:51;99426.19;;;-1.05;100.00
49945;BME280;35838;49.134;9.212;2024-01-16T03:00:22;99426.53;;;-0.94;100.00
49945;BME280;35838;49.134;9.212;2024-01-16T03:01:56;99419.72;;;-0.95;100.00
49945;BME280;35838;49.134;9.212;2024-01-16T03:03:27;99422.09;;;-1.00;100.00
49945;BME280;35838;49.134;9.212;2024-01-16T03:05:02;99421.81;;;-0.83;100.00
49945;BME280;35838;49.134;9.212;2024-01-16T03:06:33;99423.63;;;-0.81;100.00
49945;BME280;35838;49.134;9.212;2024-01-16T03:08:07;99428.88;;;-0.76;100.00
49945;BME280;35838;49.134;9.212;2024-01-16T03:09:38;99421.41;;;-0.70;100.00
49945;BME280;35838;49.134;9.212;2024-01-16T03:11:14;99423.16;;;-0.69;100.00
49945;BME280;35838;49.134;9.212;2024-01-16T03:12:45;99421.91;;;-0.80;100.00
49945;BME280;35838;49.134;9.212;2024-01-16T03:14:19;99419.81;;;-0.92;100.00
49945;BME280;35838;49.134;9.212;2024-01-16T03:15:50;99420.59;;;-0.95;100.00
49945;BME280;35838;49.134;9.212;2024-01-16T03:17:24;99424.06;;;-1.17;100.00
49945;BME280;35838;49.134;9.212;2024-01-16T03:18:55;99423.31;;;-1.14;100.00
49945;BME280;35838;49.134;9.212;2024-01-16T03:20:28;99421.84;;;-1.07;100.00
49945;BME280;35838;49.134;9.212;2024-01-16T03:21:59;99429.13;;;-0.92;100.00
49945;BME280;35838;49.134;9.212;2024-01-16T03:23:34;99418.53;;;-1.05;100.00
49945;BME280;35838;49.134;9.212;2024-01-16T03:25:08;99425.25;;;-1.07;100.00
49945;BME280;35838;49.134;9.212;2024-01-16T03:26:42;99429.81;;;-0.98;100.00
49945;BME280;35838;49.134;9.212;2024-01-16T03:28:15;99430.88;;;-0.91;100.00
49945;BME280;35838;49.134;9.212;2024-01-16T03:29:46;99434.78;;;-0.77;100.00
49945;BME280;35838;49.134;9.212;2024-01-16T03:31:20;99427.75;;;-0.84;100.00
49945;BME280;35838;49.134;9.212;2024-01-16T03:32:52;99426.22;;;-1.03;100.00
49945;BME280;35838;49.134;9.212;2024-01-16T03:34:26;99427.47;;;-1.16;100.00
49945;BME280;35838;49.134;9.212;2024-01-16T03:35:57;99425.69;;;-0.95;100.00
49945;BME280;35838;49.134;9.212;2024-01-16T03:37:31;99431.94;;;-0.85;100.00
49945;BME280;35838;49.134;9.212;2024-01-16T03:39:02;99427.25;;;-0.98;100.00
49945;BME280;35838;49.134;9.212;2024-01-16T03:40:36;99425.56;;;-0.98;100.00
49945;BME280;35838;49.134;9.212;2024-01-16T03:42:09;99427.00;;;-0.80;100.00
49945;BME280;35838;49.134;9.212;2024-01-16T03:43:43;99422.19;;;-0.72;100.00
49945;BME280;35838;49.134;9.212;2024-01-16T03:45:14;99421.09;;;-0.79;100.00
49945;BME280;35838;49.134;9.212;2024-01-16T03:46:48;99419.69;;;-0.71;100.00
49945;BME280;35838;49.134;9.212;2024-01-16T03:48:19;99421.53;;;-0.67;100.00
49945;BME280;35838;49.134;9.212;2024-01-16T03:49:53;99420.66;;;-0.67;100.00
49945;BME280;35838;49.134;9.212;2024-01-16T03:51:24;99419.56;;;-0.74;100.00
49945;BME280;35838;49.134;9.212;2024-01-16T03:52:57;99425.59;;;-0.72;100.00
49945;BME280;35838;49.134;9.212;2024-01-16T03:54:31;99426.41;;;-0.73;100.00
49945;BME280;35838;49.134;9.212;2024-01-16T03:56:02;99422.22;;;-0.71;100.00
49945;BME280;35838;49.134;9.212;2024-01-16T03:57:38;99429.88;;;-0.71;100.00
49945;BME280;35838;49.134;9.212;2024-01-16T03:59:12;99419.63;;;-0.72;100.00
49945;BME280;35838;49.134;9.212;2024-01-16T04:00:43;99421.41;;;-0.70;100.00
49945;BME280;35838;49.134;9.212;2024-01-16T04:02:17;99413.03;;;-0.66;100.00
49945;BME280;35838;49.134;9.212;2024-01-16T04:03:48;99422.19;;;-0.72;100.00
49945;BME280;35838;49.134;9.212;2024-01-16T04:05:22;99416.16;;;-0.74;100.00
49945;BME280;35838;49.134;9.212;2024-01-16T04:06:53;99420.59;;;-0.69;100.00
49945;BME280;35838;49.134;9.212;2024-01-16T04:08:26;99414.69;;;-0.68;100.00
49945;BME280;35838;49.134;9.212;2024-01-16T04:09:57;99420.66;;;-0.67;100.00
49945;BME280;35838;49.134;9.212;2024-01-16T04:11:32;99421.84;;;-0.57;100.00
49945;BME280;35838;49.134;9.212;2024-01-16T04:13:05;99421.91;;;-0.54;100.00
49945;BME280;35838;49.134;9.212;2024-01-16T04:14:39;99418.06;;;-0.69;100.00
49945;BME280;35838;49.134;9.212;2024-01-16T04:16:11;99415.66;;;-0.64;100.00
49945;BME280;35838;49.134;9.212;2024-01-16T04:17:45;99421.53;;;-0.67;100.00
49945;BME280;35838;49.134;9.212;2024-01-16T04:19:16;99416.50;;;-0.64;100.00
49945;BME280;35838;49.134;9.212;2024-01-16T04:20:50;99423.69;;;-0.77;100.00
49945;BME280;35838;49.134;9.212;2024-01-16T04:22:21;99418.06;;;-0.69;100.00
49945;BME280;35838;49.134;9.212;2024-01-16T04:23:55;99420.03;;;-0.60;100.00
49945;BME280;35838;49.134;9.212;2024-01-16T04:25:26;99420.00;;;-0.61;100.00
49945;BME280;35838;49.134;9.212;2024-01-16T04:27:00;99427.63;;;-0.61;100.00
49945;BME280;35838;49.134;9.212;2024-01-16T04:28:33;99424.13;;;-0.65;100.00
49945;BME280;35838;49.134;9.212;2024-01-16T04:30:08;99420.00;;;-0.61;100.00
49945;BME280;35838;49.134;9.212;2024-01-16T04:31:39;99425.19;;;-0.58;100.00
49945;BME280;35838;49.134;9.212;2024-01-16T04:33:14;99423.63;;;-0.55;100.00
49945;BME280;35838;49.134;9.212;2024-01-16T04:34:45;99420.09;;;-0.58;100.00
49945;BME280;35838;49.134;9.212;2024-01-16T04:36:18;99418.44;;;-0.56;100.00
49945;BME280;35838;49.134;9.212;2024-01-16T04:37:52;99429.75;;;-0.48;100.00
49945;BME280;35838;49.134;9.212;2024-01-16T04:39:23;99424.78;;;-0.45;100.00
49945;BME280;35838;49.134;9.212;2024-01-16T04:40:57;99427.91;;;-0.54;100.00
49945;BME280;35838;49.134;9.212;2024-01-16T04:42:28;99428.75;;;-0.79;100.00
49945;BME280;35838;49.134;9.212;2024-01-16T04:44:04;99422.72;;;-0.81;100.00
49945;BME280;35838;49.134;9.212;2024-01-16T04:45:35;99424.44;;;-0.82;100.00
49945;BME280;35838;49.134;9.212;2024-01-16T04:47:08;99418.97;;;-0.67;100.00
49945;BME280;35838;49.134;9.212;2024-01-16T04:48:39;99416.81;;;-0.80;100.00
49945;BME280;35838;49.134;9.212;2024-01-16T04:50:13;99416.00;;;-0.79;100.00
49945;BME280;35838;49.134;9.212;2024-01-16T04:51:47;99416.28;;;-0.71;100.00
49945;BME280;35838;49.134;9.212;2024-01-16T04:53:21;99414.47;;;-0.74;100.00
49945;BME280;35838;49.134;9.212;2024-01-16T04:54:52;99415.72;;;-0.63;100.00
49945;BME280;35838;49.134;9.212;2024-01-16T04:56:26;99410.50;;;-0.66;100.00
49945;BME280;35838;49.134;9.212;2024-01-16T04:57:57;99407.03;;;-0.93;100.00
49945;BME280;35838;49.134;9.212;2024-01-16T04:59:33;99403.25;;;-1.05;100.00
49945;BME280;35838;49.134;9.212;2024-01-16T05:01:04;99409.19;;;-1.04;100.00
49945;BME280;35838;49.134;9.212;2024-01-16T05:02:38;99416.59;;;-1.12;100.00
49945;BME280;35838;49.134;9.212;2024-01-16T05:04:10;99413.00;;;-1.17;100.00
49945;BME280;35838;49.134;9.212;2024-01-16T05:05:43;99413.94;;;-1.15;100.00
49945;BME280;35838;49.134;9.212;2024-01-16T05:07:14;99413.47;;;-1.03;100.00
49945;BME280;35838;49.134;9.212;2024-01-16T05:08:49;99413.56;;;-1.02;100.00
49945;BME280;35838;49.134;9.212;2024-01-16T05:10:20;99409.19;;;-1.04;100.00
49945;BME280;35838;49.134;9.212;2024-01-16T05:11:53;99408.34;;;-1.05;100.00
49945;BME280;35838;49.134;9.212;2024-01-16T05:13:25;99414.56;;;-0.97;100.00
49945;BME280;35838;49.134;9.212;2024-01-16T05:15:01;99407.78;;;-0.96;100.00
49945;BME280;35838;49.134;9.212;2024-01-16T05:16:32;99405.91;;;-1.02;100.00
49945;BME280;35838;49.134;9.212;2024-01-16T05:18:06;99401.78;;;-0.98;100.00
49945;BME280;35838;49.134;9.212;2024-01-16T05:19:37;99400.13;;;-0.96;100.00
49945;BME280;35838;49.134;9.212;2024-01-16T05:21:11;99399.16;;;-1.00;100.00
49945;BME280;35838;49.134;9.212;2024-01-16T05:22:42;99394.38;;;-0.90;100.00
49945;BME280;35838;49.134;9.212;2024-01-16T05:24:15;99394.63;;;-0.84;100.00
49945;BME280;35838;49.134;9.212;2024-01-16T05:25:46;99394.63;;;-0.84;100.00
49945;BME280;35838;49.134;9.212;2024-01-16T05:27:20;99394.38;;;-0.90;100.00
49945;BME280;35838;49.134;9.212;2024-01-16T05:28:51;99386.53;;;-0.97;100.00
49945;BME280;35838;49.134;9.212;2024-01-16T05:30:27;99385.63;;;-0.99;100.00
49945;BME280;35838;49.134;9.212;2024-01-16T05:31:58;99390.47;;;-1.06;100.00
49945;BME280;35838;49.134;9.212;2024-01-16T05:33:32;99381.59;;;-1.18;100.00
49945;BME280;35838;49.134;9.212;2024-01-16T05:35:03;99385.56;;;-1.00;100.00
49945;BME280;35838;49.134;9.212;2024-01-16T05:36:37;99382.66;;;-1.11;100.00
49945;BME280;35838;49.134;9.212;2024-01-16T05:38:08;99383.09;;;-1.23;100.00
49945;BME280;35838;49.134;9.212;2024-01-16T05:39:43;99381.13;;;-1.30;100.00
49945;BME280;35838;49.134;9.212;2024-01-16T05:41:14;99381.47;;;-1.21;100.00
49945;BME280;35838;49.134;9.212;2024-01-16T05:42:47;99386.06;;;-1.11;100.00
49945;BME280;35838;49.134;9.212;2024-01-16T05:44:19;99383.53;;;-1.11;100.00
49945;BME280;35838;49.134;9.212;2024-01-16T05:45:55;99382.22;;;-0.99;100.00
49945;BME280;35838;49.134;9.212;2024-01-16T05:47:26;99374.81;;;-0.91;100.00
49945;BME280;35838;49.134;9.212;2024-01-16T05:49:01;99374.94;;;-0.88;100.00
49945;BME280;35838;49.134;9.212;2024-01-16T05:50:32;99375.13;;;-0.82;100.00
49945;BME280;35838;49.134;9.212;2024-01-16T05:52:06;99365.91;;;-0.79;100.00
49945;BME280;35838;49.134;9.212;2024-01-16T05:53:37;99365.91;;;-0.79;100.00
49945;BME280;35838;49.134;9.212;2024-01-16T05:55:11;99365.03;;;-0.79;100.00
49945;BME280;35838;49.134;9.212;2024-01-16T05:56:42;99365.91;;;-0.79;100.00
49945;BME280;35838;49.134;9.212;2024-01-16T05:58:16;99358.31;;;-0.77;100.00
49945;BME280;35838;49.134;9.212;2024-01-16T05:59:50;99363.25;;;-0.82;100.00
49945;BME280;35838;49.134;9.212;2024-01-16T06:01:23;99365.16;;;-0.76;100.00
49945;BME280;35838;49.134;9.212;2024-01-16T06:02:58;99360.75;;;-0.80;100.00
49945;BME280;35838;49.134;9.212;2024-01-16T06:04:29;99364.03;;;-0.84;100.00
49945;BME280;35838;49.134;9.212;2024-01-16T06:06:02;99367.59;;;-0.79;100.00
49945;BME280;35838;49.134;9.212;2024-01-16T06:07:33;99364.38;;;-0.73;100.00
49945;BME280;35838;49.134;9.212;2024-01-16T06:09:07;99368.09;;;-0.89;100.00
49945;BME280;35838;49.134;9.212;2024-01-16T06:10:38;99370.03;;;-0.82;100.00
49945;BME280;35838;49.134;9.212;2024-01-16T06:12:11;99366.78;;;-0.78;100.00
49945;BME280;35838;49.134;9.212;2024-01-16T06:13:43;99368.50;;;-0.77;100.00
49945;BME280;35838;49.134;9.212;2024-01-16T06:15:16;99364.41;;;-0.72;100.00
49945;BME280;35838;49.134;9.212;2024-01-16T06:16:53;99363.41;;;-0.77;100.00
49945;BME280;35838;49.134;9.212;2024-01-16T06:18:24;99358.09;;;-0.83;100.00
49945;BME280;35838;49.134;9.212;2024-01-16T06:19:57;99353.00;;;-0.83;100.00
49945;BME280;35838;49.134;9.212;2024-01-16T06:21:28;99353.00;;;-0.83;100.00
49945;BME280;35838;49.134;9.212;2024-01-16T06:23:02;99347.97;;;-0.82;100.00
49945;BME280;35838;49.134;9.212;2024-01-16T06:24:33;99346.91;;;-0.88;100.00
49945;BME280;35838;49.134;9.212;2024-01-16T06:26:08;99347.06;;;-0.84;100.00
49945;BME280;35838;49.134;9.212;2024-01-16T06:27:39;99354.84;;;-0.79;100.00
49945;BME280;35838;49.134;9.212;2024-01-16T06:29:13;99349.03;;;-0.75;100.00
49945;BME280;35838;49.134;9.212;2024-01-16T06:30:44;99352.34;;;-0.77;100.00
49945;BME280;35838;49.134;9.212;2024-01-16T06:32:20;99347.41;;;-0.73;100.00
49945;BME280;35838;49.134;9.212;2024-01-16T06:33:51;99344.75;;;-0.76;100.00
49945;BME280;35838;49.134;9.212;2024-01-16T06:35:25;99343.53;;;-0.87;100.00
49945;BME280;35838;49.134;9.212;2024-01-16T06:36:56;99350.59;;;-0.79;100.00
49945;BME280;35838;49.134;9.212;2024-01-16T06:38:30;99343.19;;;-0.72;100.00
49945;BME280;35838;49.134;9.212;2024-01-16T06:40:01;99344.81;;;-0.74;100.00
49945;BME280;35838;49.134;9.212;2024-01-16T06:41:36;99343.84;;;-0.78;100.00
49945;BME280;35838;49.134;9.212;2024-01-16T06:43:07;99338.72;;;-0.80;100.00
49945;BME280;35838;49.134;9.212;2024-01-16T06:44:41;99345.47;;;-0.80;100.00
49945;BME280;35838;49.134;9.212;2024-01-16T06:46:15;99342.91;;;-0.80;100.00
49945;BME280;35838;49.134;9.212;2024-01-16T06:47:49;99348.91;;;-0.80;100.00
49945;BME280;35838;49.134;9.212;2024-01-16T06:49:22;99348.91;;;-0.80;100.00
49945;BME280;35838;49.134;9.212;2024-01-16T06:50:53;99354.88;;;-0.77;100.00
49945;BME280;35838;49.134;9.212;2024-01-16T06:52:27;99354.06;;;-0.76;100.00
49945;BME280;35838;49.134;9.212;2024-01-16T06:53:58;99356.66;;;-0.75;100.00
49945;BME280;35838;49.134;9.212;2024-01-16T06:55:31;99357.41;;;-0.79;100.00
49945;BME280;35838;49.134;9.212;2024-01-16T06:57:03;99351.50;;;-0.78;100.00
49945;BME280;35838;49.134;9.212;2024-01-16T06:58:37;99355.81;;;-0.75;100.00
49945;BME280;35838;49.134;9.212;2024-01-16T07:00:08;99363.50;;;-0.74;100.00
49945;BME280;35838;49.134;9.212;2024-01-16T07:01:44;99357.50;;;-0.76;100.00
49945;BME280;35838;49.134;9.212;2024-01-16T07:03:18;99365.34;;;-0.70;100.00
49945;BME280;35838;49.134;9.212;2024-01-16T07:04:52;99366.84;;;-0.75;100.00
49945;BME280;35838;49.134;9.212;2024-01-16T07:06:23;99361.72;;;-0.76;100.00
49945;BME280;35838;49.134;9.212;2024-01-16T07:07:56;99362.19;;;-0.88;100.00
49945;BME280;35838;49.134;9.212;2024-01-16T07:09:28;99361.88;;;-0.98;100.00
49945;BME280;35838;49.134;9.212;2024-01-16T07:11:02;99365.19;;;-1.00;100.00
49945;BME280;35838;49.134;9.212;2024-01-16T07:12:34;99365.25;;;-0.99;100.00
49945;BME280;35838;49.134;9.212;2024-01-16T07:14:08;99369.53;;;-0.98;100.00
49945;BME280;35838;49.134;9.212;2024-01-16T07:15:39;99371.25;;;-0.97;100.00
49945;BME280;35838;49.134;9.212;2024-01-16T07:17:13;99365.44;;;-0.92;100.00
49945;BME280;35838;49.134;9.212;2024-01-16T07:18:47;99370.50;;;-0.94;100.00
49945;BME280;35838;49.134;9.212;2024-01-16T07:20:20;99377.34;;;-0.91;100.00
49945;BME280;35838;49.134;9.212;2024-01-16T07:21:51;99370.44;;;-0.96;100.00
49945;BME280;35838;49.134;9.212;2024-01-16T07:23:25;99372.06;;;-0.98;100.00
49945;BME280;35838;49.134;9.212;2024-01-16T07:24:56;99373.06;;;-0.92;100.00
49945;BME280;35838;49.134;9.212;2024-01-16T07:26:30;99372.88;;;-0.99;100.00
49945;BME280;35838;49.134;9.212;2024-01-16T07:28:01;99371.88;;;-1.04;100.00
49945;BME280;35838;49.134;9.212;2024-01-16T07:29:35;99376.25;;;-1.00;100.00
49945;BME280;35838;49.134;9.212;2024-01-16T07:31:06;99374.50;;;-1.01;100.00
49945;BME280;35838;49.134;9.212;2024-01-16T07:32:40;99380.44;;;-1.02;100.00
49945;BME280;35838;49.134;9.212;2024-01-16T07:34:16;99372.88;;;-0.99;100.00
49945;BME280;35838;49.134;9.212;2024-01-16T07:35:51;99376.03;;;-1.06;100.00
49945;BME280;35838;49.134;9.212;2024-01-16T07:37:25;99374.50;;;-1.01;100.00
49945;BME280;35838;49.134;9.212;2024-01-16T07:38:56;99375.38;;;-1.00;100.00
49945;BME280;35838;49.134;9.212;2024-01-16T07:40:31;99372.06;;;-0.98;100.00
49945;BME280;35838;49.134;9.212;2024-01-16T07:42:02;99379.03;;;-0.93;100.00
49945;BME280;35838;49.134;9.212;2024-01-16T07:43:35;99383.28;;;-0.92;100.00
49945;BME280;35838;49.134;9.212;2024-01-16T07:45:07;99381.00;;;-1.09;100.00
49945;BME280;35838;49.134;9.212;2024-01-16T07:46:41;99380.13;;;-1.11;100.00
49945;BME280;35838;49.134;9.212;2024-01-16T07:48:12;99380.38;;;-1.03;100.00
49945;BME280;35838;49.134;9.212;2024-01-16T07:49:48;99369.22;;;-1.07;100.00
49945;BME280;35838;49.134;9.212;2024-01-16T07:51:19;99372.78;;;-1.02;100.00
49945;BME280;35838;49.134;9.212;2024-01-16T07:52:53;99369.22;;;-1.07;100.00
49945;BME280;35838;49.134;9.212;2024-01-16T07:54:24;99372.88;;;-0.99;100.00
49945;BME280;35838;49.134;9.212;2024-01-16T07:55:57;99370.41;;;-0.97;100.00
49945;BME280;35838;49.134;9.212;2024-01-16T07:57:28;99369.72;;;-0.91;100.00
49945;BME280;35838;49.134;9.212;2024-01-16T07:59:02;99371.25;;;-0.97;100.00
49945;BME280;35838;49.134;9.212;2024-01-16T08:00:33;99362.34;;;-0.84;100.00
49945;BME280;35838;49.134;9.212;2024-01-16T08:02:07;99368.09;;;-0.89;100.00
49945;BME280;35838;49.134;9.212;2024-01-16T08:03:39;99371.53;;;-0.89;100.00
49945;BME280;35838;49.134;9.212;2024-01-16T08:05:15;99371.44;;;-0.90;100.00